sensor_id;sensor_type;location;lat;lon;timestamp;P1;durP1;ratioP1;P2;durP2;ratioP2
49340;SDS011;35209;51.050;13.678;2023-02-11T00:02:41;31.05;;;22.15;;
49340;SDS011;35209;51.050;13.678;2023-02-11T00:07:48;31.30;;;22.63;;
49340;SDS011;35209;51.050;13.678;2023-02-11T00:12:50;27.08;;;22.65;;
49340;SDS011;35209;51.050;13.678;2023-02-11T00:17:51;31.55;;;22.75;;
49340;SDS011;35209;51.050;13.678;2023-02-11T00:22:54;30.67;;;23.67;;
49340;SDS011;35209;51.050;13.678;2023-02-11T00:27:55;30.08;;;22.50;;
49340;SDS011;35209;51.050;13.678;2023-02-11T00:32:57;36.38;;;22.52;;
49340;SDS011;35209;51.050;13.678;2023-02-11T00:37:59;33.70;;;22.50;;
49340;SDS011;35209;51.050;13.678;2023-02-11T00:43:01;27.55;;;22.35;;
49340;SDS011;35209;51.050;13.678;2023-02-11T00:48:03;23.95;;;21.35;;
49340;SDS011;35209;51.050;13.678;2023-02-11T00:53:05;27.10;;;21.77;;
49340;SDS011;35209;51.050;13.678;2023-02-11T00:58:06;27.48;;;22.27;;
49340;SDS011;35209;51.050;13.678;2023-02-11T01:03:08;30.13;;;23.55;;
49340;SDS011;35209;51.050;13.678;2023-02-11T01:08:10;26.30;;;22.02;;
49340;SDS011;35209;51.050;13.678;2023-02-11T01:13:12;35.50;;;23.83;;
49340;SDS011;35209;51.050;13.678;2023-02-11T01:18:14;23.52;;;21.13;;
49340;SDS011;35209;51.050;13.678;2023-02-11T01:23:15;37.10;;;23.23;;
49340;SDS011;35209;51.050;13.678;2023-02-11T01:28:24;29.67;;;23.35;;
49340;SDS011;35209;51.050;13.678;2023-02-11T01:33:28;26.00;;;23.00;;
49340;SDS011;35209;51.050;13.678;2023-02-11T01:38:30;29.23;;;23.13;;
49340;SDS011;35209;51.050;13.678;2023-02-11T01:43:34;30.73;;;24.85;;
49340;SDS011;35209;51.050;13.678;2023-02-11T01:48:43;30.85;;;23.58;;
49340;SDS011;35209;51.050;13.678;2023-02-11T01:53:48;26.27;;;22.35;;
49340;SDS011;35209;51.050;13.678;2023-02-11T01:59:21;34.45;;;24.95;;
49340;SDS011;35209;51.050;13.678;2023-02-11T02:04:29;34.20;;;23.38;;
49340;SDS011;35209;51.050;13.678;2023-02-11T02:09:35;29.10;;;23.35;;
49340;SDS011;35209;51.050;13.678;2023-02-11T02:14:40;35.55;;;23.77;;
49340;SDS011;35209;51.050;13.678;2023-02-11T02:20:21;29.13;;;23.90;;
49340;SDS011;35209;51.050;13.678;2023-02-11T02:31:01;25.50;;;22.90;;
49340;SDS011;35209;51.050;13.678;2023-02-11T02:36:21;26.25;;;23.08;;
49340;SDS011;35209;51.050;13.678;2023-02-11T02:41:59;34.53;;;25.05;;
49340;SDS011;35209;51.050;13.678;2023-02-11T02:47:02;26.05;;;23.13;;
49340;SDS011;35209;51.050;13.678;2023-02-11T03:02:32;24.80;;;22.33;;
49340;SDS011;35209;51.050;13.678;2023-02-11T03:08:26;24.58;;;22.00;;
49340;SDS011;35209;51.050;13.678;2023-02-11T03:13:10;27.00;;;22.08;;
49340;SDS011;35209;51.050;13.678;2023-02-11T03:18:14;23.02;;;20.67;;
49340;SDS011;35209;51.050;13.678;2023-02-11T03:23:29;24.48;;;21.95;;
49340;SDS011;35209;51.050;13.678;2023-02-11T03:28:38;25.60;;;22.95;;
49340;SDS011;35209;51.050;13.678;2023-02-11T03:34:02;29.60;;;23.50;;
49340;SDS011;35209;51.050;13.678;2023-02-11T03:39:11;31.48;;;24.52;;
49340;SDS011;35209;51.050;13.678;2023-02-11T03:44:19;31.50;;;23.55;;
49340;SDS011;35209;51.050;13.678;2023-02-11T03:49:25;26.15;;;23.52;;
49340;SDS011;35209;51.050;13.678;2023-02-11T03:54:29;31.95;;;25.17;;
49340;SDS011;35209;51.050;13.678;2023-02-11T03:59:31;32.42;;;24.58;;
49340;SDS011;35209;51.050;13.678;2023-02-11T04:04:32;33.30;;;24.92;;
49340;SDS011;35209;51.050;13.678;2023-02-11T04:09:34;32.80;;;25.00;;
49340;SDS011;35209;51.050;13.678;2023-02-11T04:14:37;29.10;;;23.83;;
49340;SDS011;35209;51.050;13.678;2023-02-11T04:19:39;33.72;;;24.85;;
49340;SDS011;35209;51.050;13.678;2023-02-11T04:24:40;29.85;;;24.58;;
49340;SDS011;35209;51.050;13.678;2023-02-11T04:29:44;29.42;;;23.80;;
49340;SDS011;35209;51.050;13.678;2023-02-11T04:34:45;29.05;;;23.00;;
49340;SDS011;35209;51.050;13.678;2023-02-11T04:39:47;31.25;;;24.52;;
49340;SDS011;35209;51.050;13.678;2023-02-11T04:44:49;32.63;;;24.25;;
49340;SDS011;35209;51.050;13.678;2023-02-11T04:49:51;32.10;;;25.90;;
49340;SDS011;35209;51.050;13.678;2023-02-11T04:54:52;35.22;;;24.85;;
49340;SDS011;35209;51.050;13.678;2023-02-11T04:59:54;37.22;;;25.70;;
49340;SDS011;35209;51.050;13.678;2023-02-11T05:04:55;33.45;;;26.85;;
49340;SDS011;35209;51.050;13.678;2023-02-11T05:09:57;32.03;;;28.02;;
49340;SDS011;35209;51.050;13.678;2023-02-11T05:14:59;36.50;;;27.80;;
49340;SDS011;35209;51.050;13.678;2023-02-11T05:20:00;37.65;;;27.23;;
49340;SDS011;35209;51.050;13.678;2023-02-11T05:25:02;40.58;;;26.90;;
49340;SDS011;35209;51.050;13.678;2023-02-11T05:30:04;42.90;;;27.75;;
49340;SDS011;35209;51.050;13.678;2023-02-11T05:35:07;36.58;;;26.08;;
49340;SDS011;35209;51.050;13.678;2023-02-11T05:40:10;35.10;;;27.50;;
49340;SDS011;35209;51.050;13.678;2023-02-11T05:45:12;47.85;;;28.45;;
49340;SDS011;35209;51.050;13.678;2023-02-11T05:50:13;44.20;;;29.33;;
49340;SDS011;35209;51.050;13.678;2023-02-11T05:55:15;43.75;;;29.42;;
49340;SDS011;35209;51.050;13.678;2023-02-11T06:00:17;46.30;;;30.00;;
49340;SDS011;35209;51.050;13.678;2023-02-11T06:05:19;49.28;;;29.20;;
49340;SDS011;35209;51.050;13.678;2023-02-11T06:10:21;47.03;;;29.95;;
49340;SDS011;35209;51.050;13.678;2023-02-11T06:15:22;55.30;;;30.10;;
49340;SDS011;35209;51.050;13.678;2023-02-11T06:20:24;39.55;;;28.42;;
49340;SDS011;35209;51.050;13.678;2023-02-11T06:25:25;40.20;;;28.60;;
49340;SDS011;35209;51.050;13.678;2023-02-11T06:30:27;41.63;;;28.27;;
49340;SDS011;35209;51.050;13.678;2023-02-11T06:35:29;37.55;;;27.65;;
49340;SDS011;35209;51.050;13.678;2023-02-11T06:40:31;42.75;;;28.42;;
49340;SDS011;35209;51.050;13.678;2023-02-11T06:45:32;44.95;;;27.33;;
49340;SDS011;35209;51.050;13.678;2023-02-11T06:50:34;44.85;;;29.27;;
49340;SDS011;35209;51.050;13.678;2023-02-11T06:55:36;46.28;;;28.60;;
49340;SDS011;35209;51.050;13.678;2023-02-11T07:00:37;49.58;;;30.20;;
49340;SDS011;35209;51.050;13.678;2023-02-11T07:05:41;44.28;;;29.15;;
49340;SDS011;35209;51.050;13.678;2023-02-11T07:10:44;50.95;;;32.00;;
49340;SDS011;35209;51.050;13.678;2023-02-11T07:15:45;50.13;;;30.85;;
49340;SDS011;35209;51.050;13.678;2023-02-11T07:20:47;52.55;;;32.03;;
49340;SDS011;35209;51.050;13.678;2023-02-11T07:25:49;55.88;;;33.75;;
49340;SDS011;35209;51.050;13.678;2023-02-11T07:30:51;57.15;;;32.42;;
49340;SDS011;35209;51.050;13.678;2023-02-11T07:35:53;45.25;;;32.42;;
49340;SDS011;35209;51.050;13.678;2023-02-11T07:41:05;52.92;;;33.88;;
49340;SDS011;35209;51.050;13.678;2023-02-11T07:46:13;58.58;;;32.78;;
49340;SDS011;35209;51.050;13.678;2023-02-11T07:51:21;55.78;;;32.72;;
49340;SDS011;35209;51.050;13.678;2023-02-11T07:56:30;61.95;;;32.45;;
49340;SDS011;35209;51.050;13.678;2023-02-11T08:01:33;51.13;;;31.92;;
49340;SDS011;35209;51.050;13.678;2023-02-11T08:06:38;52.53;;;30.73;;
49340;SDS011;35209;51.050;13.678;2023-02-11T08:11:41;45.60;;;30.42;;
49340;SDS011;35209;51.050;13.678;2023-02-11T08:16:43;55.85;;;31.58;;
49340;SDS011;35209;51.050;13.678;2023-02-11T08:21:45;43.35;;;30.38;;
49340;SDS011;35209;51.050;13.678;2023-02-11T08:26:47;42.17;;;28.02;;
49340;SDS011;35209;51.050;13.678;2023-02-11T08:31:49;36.30;;;27.95;;
49340;SDS011;35209;51.050;13.678;2023-02-11T08:36:51;35.22;;;26.65;;
49340;SDS011;35209;51.050;13.678;2023-02-11T08:41:54;43.20;;;27.55;;
49340;SDS011;35209;51.050;13.678;2023-02-11T08:46:57;41.38;;;27.30;;
49340;SDS011;35209;51.050;13.678;2023-02-11T08:51:59;37.97;;;28.98;;
49340;SDS011;35209;51.050;13.678;2023-02-11T08:57:04;33.22;;;26.58;;
49340;SDS011;35209;51.050;13.678;2023-02-11T09:02:08;40.88;;;27.00;;
49340;SDS011;35209;51.050;13.678;2023-02-11T09:07:12;41.90;;;28.30;;
49340;SDS011;35209;51.050;13.678;2023-02-11T09:12:14;35.58;;;26.85;;
49340;SDS011;35209;51.050;13.678;2023-02-11T09:17:16;39.35;;;28.85;;
49340;SDS011;35209;51.050;13.678;2023-02-11T09:22:18;40.33;;;28.20;;
49340;SDS011;35209;51.050;13.678;2023-02-11T09:27:19;42.95;;;29.73;;
49340;SDS011;35209;51.050;13.678;2023-02-11T09:32:21;43.60;;;30.15;;
49340;SDS011;35209;51.050;13.678;2023-02-11T09:37:22;46.83;;;30.08;;
49340;SDS011;35209;51.050;13.678;2023-02-11T09:47:44;43.80;;;29.42;;
49340;SDS011;35209;51.050;13.678;2023-02-11T09:58:19;40.83;;;28.40;;
49340;SDS011;35209;51.050;13.678;2023-02-11T10:03:37;39.05;;;28.40;;
49340;SDS011;35209;51.050;13.678;2023-02-11T10:30:30;42.90;;;29.67;;
49340;SDS011;35209;51.050;13.678;2023-02-11T10:35:37;36.83;;;28.58;;
49340;SDS011;35209;51.050;13.678;2023-02-11T10:40:39;39.15;;;28.38;;
49340;SDS011;35209;51.050;13.678;2023-02-11T10:50:45;38.20;;;28.77;;
49340;SDS011;35209;51.050;13.678;2023-02-11T10:55:51;36.25;;;27.58;;
49340;SDS011;35209;51.050;13.678;2023-02-11T11:00:55;36.03;;;27.75;;
49340;SDS011;35209;51.050;13.678;2023-02-11T11:06:00;31.13;;;26.13;;
49340;SDS011;35209;51.050;13.678;2023-02-11T11:11:05;31.17;;;26.50;;
49340;SDS011;35209;51.050;13.678;2023-02-11T11:21:18;30.83;;;26.73;;
49340;SDS011;35209;51.050;13.678;2023-02-11T11:26:25;32.38;;;26.98;;
49340;SDS011;35209;51.050;13.678;2023-02-11T11:31:33;31.63;;;25.52;;
49340;SDS011;35209;51.050;13.678;2023-02-11T11:36:45;28.95;;;26.00;;
49340;SDS011;35209;51.050;13.678;2023-02-11T11:41:49;35.85;;;26.63;;
49340;SDS011;35209;51.050;13.678;2023-02-11T11:47:39;30.63;;;25.92;;
49340;SDS011;35209;51.050;13.678;2023-02-11T11:52:32;33.50;;;25.50;;
49340;SDS011;35209;51.050;13.678;2023-02-11T11:57:40;33.75;;;26.65;;
49340;SDS011;35209;51.050;13.678;2023-02-11T12:02:57;30.25;;;25.42;;
49340;SDS011;35209;51.050;13.678;2023-02-11T12:13:53;32.90;;;25.85;;
49340;SDS011;35209;51.050;13.678;2023-02-11T12:36:01;31.58;;;25.60;;
49340;SDS011;35209;51.050;13.678;2023-02-11T12:46:49;35.20;;;26.88;;
49340;SDS011;35209;51.050;13.678;2023-02-11T12:52:08;31.63;;;25.48;;
49340;SDS011;35209;51.050;13.678;2023-02-11T12:57:21;37.47;;;27.10;;
49340;SDS011;35209;51.050;13.678;2023-02-11T13:08:15;29.27;;;25.67;;
49340;SDS011;35209;51.050;13.678;2023-02-11T13:13:22;33.75;;;25.25;;
49340;SDS011;35209;51.050;13.678;2023-02-11T13:18:34;34.15;;;26.95;;
49340;SDS011;35209;51.050;13.678;2023-02-11T13:34:52;32.63;;;25.95;;
49340;SDS011;35209;51.050;13.678;2023-02-11T13:40:05;34.20;;;25.65;;
49340;SDS011;35209;51.050;13.678;2023-02-11T13:50:23;27.70;;;23.77;;
49340;SDS011;35209;51.050;13.678;2023-02-11T13:55:27;28.85;;;25.77;;
49340;SDS011;35209;51.050;13.678;2023-02-11T14:05:35;27.25;;;24.65;;
49340;SDS011;35209;51.050;13.678;2023-02-11T14:16:10;40.60;;;27.75;;
49340;SDS011;35209;51.050;13.678;2023-02-11T14:37:25;29.88;;;23.15;;
49340;SDS011;35209;51.050;13.678;2023-02-11T14:42:51;27.30;;;24.27;;
49340;SDS011;35209;51.050;13.678;2023-02-11T14:48:02;27.50;;;24.67;;
49340;SDS011;35209;51.050;13.678;2023-02-11T14:53:13;28.50;;;24.73;;
49340;SDS011;35209;51.050;13.678;2023-02-11T15:08:42;31.70;;;26.38;;
49340;SDS011;35209;51.050;13.678;2023-02-11T15:14:13;28.52;;;25.45;;
49340;SDS011;35209;51.050;13.678;2023-02-11T15:19:25;28.98;;;23.83;;
49340;SDS011;35209;51.050;13.678;2023-02-11T15:24:34;26.30;;;23.70;;
49340;SDS011;35209;51.050;13.678;2023-02-11T15:29:37;25.40;;;22.88;;
49340;SDS011;35209;51.050;13.678;2023-02-11T15:34:41;27.23;;;24.33;;
49340;SDS011;35209;51.050;13.678;2023-02-11T15:39:44;25.27;;;22.90;;
49340;SDS011;35209;51.050;13.678;2023-02-11T15:44:46;29.55;;;22.98;;
49340;SDS011;35209;51.050;13.678;2023-02-11T15:49:57;25.52;;;22.73;;
49340;SDS011;35209;51.050;13.678;2023-02-11T15:54:59;29.65;;;24.02;;
49340;SDS011;35209;51.050;13.678;2023-02-11T16:00:03;26.60;;;23.85;;
49340;SDS011;35209;51.050;13.678;2023-02-11T16:05:32;34.80;;;27.98;;
49340;SDS011;35209;51.050;13.678;2023-02-11T16:10:37;43.13;;;31.23;;
49340;SDS011;35209;51.050;13.678;2023-02-11T16:15:46;40.55;;;28.92;;
49340;SDS011;35209;51.050;13.678;2023-02-11T16:20:51;29.15;;;26.05;;
49340;SDS011;35209;51.050;13.678;2023-02-11T16:26:40;31.73;;;26.40;;
49340;SDS011;35209;51.050;13.678;2023-02-11T16:31:21;30.17;;;26.30;;
49340;SDS011;35209;51.050;13.678;2023-02-11T16:36:23;30.05;;;25.63;;
49340;SDS011;35209;51.050;13.678;2023-02-11T16:41:25;35.08;;;27.98;;
49340;SDS011;35209;51.050;13.678;2023-02-11T16:46:27;42.88;;;30.60;;
49340;SDS011;35209;51.050;13.678;2023-02-11T16:51:30;42.33;;;31.88;;
49340;SDS011;35209;51.050;13.678;2023-02-11T16:56:32;48.00;;;31.98;;
49340;SDS011;35209;51.050;13.678;2023-02-11T17:01:34;51.47;;;34.38;;
49340;SDS011;35209;51.050;13.678;2023-02-11T17:06:38;63.70;;;37.13;;
49340;SDS011;35209;51.050;13.678;2023-02-11T17:11:40;51.20;;;32.97;;
49340;SDS011;35209;51.050;13.678;2023-02-11T17:16:42;48.58;;;33.22;;
49340;SDS011;35209;51.050;13.678;2023-02-11T17:21:46;49.28;;;32.72;;
49340;SDS011;35209;51.050;13.678;2023-02-11T17:26:49;41.70;;;32.70;;
49340;SDS011;35209;51.050;13.678;2023-02-11T17:31:51;46.78;;;32.67;;
49340;SDS011;35209;51.050;13.678;2023-02-11T17:36:54;39.65;;;29.38;;
49340;SDS011;35209;51.050;13.678;2023-02-11T17:41:56;38.33;;;29.90;;
49340;SDS011;35209;51.050;13.678;2023-02-11T17:46:58;51.13;;;32.55;;
49340;SDS011;35209;51.050;13.678;2023-02-11T17:51:59;44.35;;;30.80;;
49340;SDS011;35209;51.050;13.678;2023-02-11T17:57:01;40.92;;;29.33;;
49340;SDS011;35209;51.050;13.678;2023-02-11T18:02:03;44.05;;;31.55;;
49340;SDS011;35209;51.050;13.678;2023-02-11T18:07:05;34.50;;;28.88;;
49340;SDS011;35209;51.050;13.678;2023-02-11T18:12:07;38.83;;;30.00;;
49340;SDS011;35209;51.050;13.678;2023-02-11T18:17:11;37.42;;;29.42;;
49340;SDS011;35209;51.050;13.678;2023-02-11T18:22:16;35.85;;;28.10;;
49340;SDS011;35209;51.050;13.678;2023-02-11T18:27:18;39.55;;;28.58;;
49340;SDS011;35209;51.050;13.678;2023-02-11T18:32:21;31.30;;;27.73;;
49340;SDS011;35209;51.050;13.678;2023-02-11T18:37:22;38.58;;;29.92;;
49340;SDS011;35209;51.050;13.678;2023-02-11T18:42:24;36.00;;;30.10;;
49340;SDS011;35209;51.050;13.678;2023-02-11T18:47:26;39.70;;;30.05;;
49340;SDS011;35209;51.050;13.678;2023-02-11T18:52:28;42.13;;;30.67;;
49340;SDS011;35209;51.050;13.678;2023-02-11T18:57:31;35.72;;;30.00;;
49340;SDS011;35209;51.050;13.678;2023-02-11T19:02:33;38.10;;;30.52;;
49340;SDS011;35209;51.050;13.678;2023-02-11T19:07:34;38.30;;;30.65;;
49340;SDS011;35209;51.050;13.678;2023-02-11T19:12:36;37.03;;;29.25;;
49340;SDS011;35209;51.050;13.678;2023-02-11T19:17:39;38.47;;;29.63;;
49340;SDS011;35209;51.050;13.678;2023-02-11T19:22:41;41.65;;;29.00;;
49340;SDS011;35209;51.050;13.678;2023-02-11T19:27:43;33.20;;;27.27;;
49340;SDS011;35209;51.050;13.678;2023-02-11T19:32:44;30.80;;;25.92;;
49340;SDS011;35209;51.050;13.678;2023-02-11T19:37:46;26.42;;;23.92;;
49340;SDS011;35209;51.050;13.678;2023-02-11T19:42:48;26.90;;;24.38;;
49340;SDS011;35209;51.050;13.678;2023-02-11T19:47:53;25.60;;;23.15;;
49340;SDS011;35209;51.050;13.678;2023-02-11T19:52:55;25.73;;;23.23;;
49340;SDS011;35209;51.050;13.678;2023-02-11T19:57:57;27.95;;;24.92;;
49340;SDS011;35209;51.050;13.678;2023-02-11T20:02:58;27.75;;;24.48;;
49340;SDS011;35209;51.050;13.678;2023-02-11T20:08:00;28.83;;;25.85;;
49340;SDS011;35209;51.050;13.678;2023-02-11T20:13:02;27.73;;;24.90;;
49340;SDS011;35209;51.050;13.678;2023-02-11T20:18:04;27.23;;;24.63;;
49340;SDS011;35209;51.050;13.678;2023-02-11T20:23:06;24.77;;;22.45;;
49340;SDS011;35209;51.050;13.678;2023-02-11T20:28:07;25.00;;;22.65;;
49340;SDS011;35209;51.050;13.678;2023-02-11T20:33:09;24.88;;;22.55;;
49340;SDS011;35209;51.050;13.678;2023-02-11T20:38:20;24.00;;;21.98;;
49340;SDS011;35209;51.050;13.678;2023-02-11T20:43:22;26.58;;;23.90;;
49340;SDS011;35209;51.050;13.678;2023-02-11T20:48:24;26.17;;;23.55;;
49340;SDS011;35209;51.050;13.678;2023-02-11T20:53:25;25.75;;;23.25;;
49340;SDS011;35209;51.050;13.678;2023-02-11T20:58:27;25.33;;;22.90;;
49340;SDS011;35209;51.050;13.678;2023-02-11T21:03:29;27.08;;;24.45;;
49340;SDS011;35209;51.050;13.678;2023-02-11T21:08:31;28.42;;;24.73;;
49340;SDS011;35209;51.050;13.678;2023-02-11T21:13:32;28.75;;;25.63;;
49340;SDS011;35209;51.050;13.678;2023-02-11T21:18:34;28.38;;;25.42;;
49340;SDS011;35209;51.050;13.678;2023-02-11T21:23:36;33.58;;;27.20;;
49340;SDS011;35209;51.050;13.678;2023-02-11T21:28:40;29.50;;;26.70;;
49340;SDS011;35209;51.050;13.678;2023-02-11T21:33:42;28.88;;;25.88;;
49340;SDS011;35209;51.050;13.678;2023-02-11T21:38:43;26.45;;;24.17;;
49340;SDS011;35209;51.050;13.678;2023-02-11T21:43:45;28.60;;;25.20;;
49340;SDS011;35209;51.050;13.678;2023-02-11T21:48:47;27.88;;;24.48;;
49340;SDS011;35209;51.050;13.678;2023-02-11T21:53:56;26.63;;;24.00;;
49340;SDS011;35209;51.050;13.678;2023-02-11T21:58:59;29.13;;;25.90;;
49340;SDS011;35209;51.050;13.678;2023-02-11T22:04:01;33.63;;;27.33;;
49340;SDS011;35209;51.050;13.678;2023-02-11T22:09:04;38.88;;;30.05;;
49340;SDS011;35209;51.050;13.678;2023-02-11T22:14:08;44.33;;;31.00;;
49340;SDS011;35209;51.050;13.678;2023-02-11T22:19:10;45.13;;;30.77;;
49340;SDS011;35209;51.050;13.678;2023-02-11T22:24:11;39.05;;;31.08;;
49340;SDS011;35209;51.050;13.678;2023-02-11T22:29:13;46.63;;;32.33;;
49340;SDS011;35209;51.050;13.678;2023-02-11T22:34:15;47.53;;;33.13;;
49340;SDS011;35209;51.050;13.678;2023-02-11T22:39:17;44.53;;;32.60;;
49340;SDS011;35209;51.050;13.678;2023-02-11T22:44:18;41.63;;;32.03;;
49340;SDS011;35209;51.050;13.678;2023-02-11T22:49:21;50.63;;;34.00;;
49340;SDS011;35209;51.050;13.678;2023-02-11T22:54:23;43.95;;;31.92;;
49340;SDS011;35209;51.050;13.678;2023-02-11T22:59:25;45.92;;;31.20;;
49340;SDS011;35209;51.050;13.678;2023-02-11T23:04:27;46.55;;;33.58;;
49340;SDS011;35209;51.050;13.678;2023-02-11T23:09:29;46.22;;;33.60;;
49340;SDS011;35209;51.050;13.678;2023-02-11T23:14:30;51.35;;;33.35;;
49340;SDS011;35209;51.050;13.678;2023-02-11T23:19:32;57.95;;;36.42;;
49340;SDS011;35209;51.050;13.678;2023-02-11T23:24:34;50.30;;;35.88;;
49340;SDS011;35209;51.050;13.678;2023-02-11T23:29:37;57.30;;;37.50;;
49340;SDS011;35209;51.050;13.678;2023-02-11T23:34:38;65.30;;;40.45;;
49340;SDS011;35209;51.050;13.678;2023-02-11T23:39:40;65.40;;;38.83;;
49340;SDS011;35209;51.050;13.678;2023-02-11T23:44:42;70.65;;;39.22;;
49340;SDS011;35209;51.050;13.678;2023-02-11T23:49:44;64.60;;;38.15;;
49340;SDS011;35209;51.050;13.678;2023-02-11T23:54:45;68.88;;;40.17;;
49340;SDS011;35209;51.050;13.678;2023-02-11T23:59:48;65.70;;;39.90;;
